Welcome to Northern Hawkes Bay. New Zealand.
PWS Header
      nz Flag



Hit Counter


W3C Valid W3C Valid logo


    Wairoa

Select any of the Stations below to visit their websites.










Historic Data from Weather Underground
Select the location of interest below. Wairoa is the default. Please have patience, this Data is slow to load in.
Northern Hawkes Bay Historical Data
Daily Summary for April 25, 2017 Units:  English    Metric   Both
« Previous Day
Next Day »
Daily Weekly Monthly Yearly Custom
  High: Low: Average:
Temperature: 64.4 °F 49.3 °F 55.6 °F
Dew Point: 60.8 °F 48.9 °F 54.5 °F
Humidity: 99% 83% 96%
Wind Speed: 8.3mph 0mph 0.9mph
Wind Gust: 13.6mph - -
Wind- - WSW
Pressure: 30.1 in 30.1 in -
Precipitation: 0.09 in    
Historical Graphs
 
 
Tabular Data for April 25, 2017
Time Temperature Dew Point Pressure Wind Wind Speed Wind Gust Humidity Rainfall Rate (Hourly) solar
00:01 54.9 °F 54 °F 30.1 in Calm     97% 0.02 in 0 W/m2
00:06 55.8 °F 55.6 °F 30.1 in SSE 1.6 mph 5.4 mph 99% 0.02 in 0 W/m2
00:11 55.9 °F 55.8 °F 30.1 in Calm   6.9 mph 99% 0.02 in 0 W/m2
00:21 55.9 °F 55.8 °F 30.1 in Calm   0.7 mph 99% 0.02 in 0 W/m2
00:26 55.9 °F 55.8 °F 30.1 in Calm   0.7 mph 99% 0.02 in 0 W/m2
00:31 56.1 °F 55.9 °F 30.1 in Calm   2.2 mph 99% 0.02 in 0 W/m2
00:36 56.1 °F 55.9 °F 30.1 in Calm   2.2 mph 99% 0.01 in 0 W/m2
00:41 56.5 °F 56.1 °F 30.1 in Calm   2.2 mph 99% 0 in 0 W/m2
00:46 56.5 °F 56.1 °F 30.1 in Calm     99% 0 in 0 W/m2
00:51 56.3 °F 55.9 °F 30.1 in Calm     99% 0 in 0 W/m2
00:56 56.3 °F 55.9 °F 30.1 in Calm     99% 0 in 0 W/m2
01:01 55.9 °F 55.8 °F 30.1 in Calm     99% 0 in 0 W/m2
01:06 55.9 °F 55.8 °F 30.1 in Calm     99% 0 in 0 W/m2
01:11 55.9 °F 55.8 °F 30.1 in Calm     99% 0 in 0 W/m2
01:16 55.4 °F 55 °F 30.1 in Calm     99% 0 in 0 W/m2
01:21 55.9 °F 55.8 °F 30.1 in Calm     99% 0 in 0 W/m2
01:26 55.8 °F 55.6 °F 30.1 in Calm     99% 0 in 0 W/m2
01:31 55.4 °F 55 °F 30.1 in Calm     99% 0 in 0 W/m2
01:36 55.2 °F 54.3 °F 30.1 in Calm     97% 0 in 0 W/m2
01:41 54.9 °F 54 °F 30.1 in Calm     97% 0 in 0 W/m2
01:46 54.7 °F 54 °F 30.1 in Calm     97% 0 in 0 W/m2
01:51 54.5 °F 53.8 °F 30.1 in Calm     97% 0 in 0 W/m2
01:56 54.3 °F 53.4 °F 30.1 in Calm     97% 0 in 0 W/m2
02:01 54.1 °F 53.2 °F 30.1 in Calm     97% 0 in 0 W/m2
02:06 54 °F 53.1 °F 30.1 in Calm     97% 0 in 0 W/m2
02:11 54 °F 53.1 °F 30.1 in Calm     97% 0 in 0 W/m2
02:16 53.8 °F 53.1 °F 30.1 in Calm     97% 0 in 0 W/m2
02:21 53.6 °F 52.9 °F 30.1 in NW 0.7 mph 4.5 mph 97% 0 in 0 W/m2
02:26 53.6 °F 52.9 °F 30.1 in Calm   4.5 mph 97% 0 in 0 W/m2
02:31 54 °F 53.1 °F 30.1 in Calm   6.9 mph 97% 0 in 0 W/m2
02:36 54 °F 53.1 °F 30.1 in Calm   6.9 mph 97% 0 in 0 W/m2
02:41 53.8 °F 53.1 °F 30.1 in Calm   1.6 mph 97% 0 in 0 W/m2
02:46 53.6 °F 52.9 °F 30.1 in Calm   1.6 mph 97% 0 in 0 W/m2
02:51 53.2 °F 52.7 °F 30.1 in Calm   1.6 mph 98% 0 in 0 W/m2
02:56 52.5 °F 52 °F 30.1 in Calm   3.8 mph 98% 0 in 0 W/m2
03:01 52.7 °F 52.2 °F 30.1 in Calm   4.5 mph 98% 0 in 0 W/m2
03:06 52.9 °F 52.3 °F 30.1 in Calm   4.5 mph 98% 0 in 0 W/m2
03:11 52.5 °F 52 °F 30.1 in Calm     98% 0 in 0 W/m2
03:16 52 °F 51.4 °F 30.1 in Calm     98% 0 in 0 W/m2
03:21 52.3 °F 51.8 °F 30.1 in Calm   4.5 mph 98% 0 in 0 W/m2
03:26 52.2 °F 51.6 °F 30.1 in Calm   4.5 mph 98% 0 in 0 W/m2
03:31 52 °F 51.4 °F 30.1 in Calm   3.1 mph 98% 0 in 0 W/m2
03:36 50.5 °F 50.4 °F 30.1 in Calm   2.2 mph 99% 0 in 0 W/m2
03:41 51.6 °F 51.4 °F 30.1 in Calm     99% 0 in 0 W/m2
03:46 51.3 °F 51.1 °F 30.1 in Calm     99% 0 in 0 W/m2
03:51 51.1 °F 50.7 °F 30.1 in Calm     99% 0 in 0 W/m2
03:56 50.4 °F 50.2 °F 30.1 in Calm     99% 0 in 0 W/m2
04:01 50.9 °F 50.5 °F 30.1 in Calm     99% 0 in 0 W/m2
04:07 50.7 °F 50.5 °F 30.1 in Calm     99% 0 in 0 W/m2
04:12 50.5 °F 50.4 °F 30.1 in Calm     99% 0 in 0 W/m2
04:17 50.5 °F 50.4 °F 30.1 in Calm     99% 0 in 0 W/m2
04:22 50.4 °F 50.2 °F 30.1 in Calm     99% 0 in 0 W/m2
04:27 50.2 °F 49.8 °F 30.1 in Calm     99% 0 in 0 W/m2
04:32 49.3 °F 48.9 °F 30.1 in Calm     99% 0 in 0 W/m2
04:37 50 °F 49.6 °F 30.1 in Calm     99% 0 in 0 W/m2
04:42 50 °F 49.6 °F 30.1 in Calm     99% 0 in 0 W/m2
04:47 49.8 °F 49.6 °F 30.1 in Calm     99% 0 in 0 W/m2
04:52 49.8 °F 49.6 °F 30.1 in Calm   0.7 mph 99% 0 in 0 W/m2
04:57 49.6 °F 49.5 °F 30.1 in Calm   2.2 mph 99% 0 in 0 W/m2
05:02 49.6 °F 49.5 °F 30.1 in Calm   2.2 mph 99% 0 in 0 W/m2
05:07 49.6 °F 49.5 °F 30.1 in Calm     99% 0 in 0 W/m2
05:12 49.6 °F 49.5 °F 30.1 in Calm     99% 0 in 0 W/m2
05:17 49.6 °F 49.5 °F 30.1 in Calm     99% 0 in 0 W/m2
05:22 49.6 °F 49.5 °F 30.1 in Calm     99% 0 in 0 W/m2
05:27 49.5 °F 49.3 °F 30.1 in Calm     99% 0 in 0 W/m2
05:32 49.5 °F 49.3 °F 30.1 in Calm     99% 0 in 0 W/m2
05:37 49.5 °F 49.3 °F 30.1 in Calm   2.2 mph 99% 0 in 0 W/m2
05:42 49.6 °F 49.5 °F 30.1 in Calm   2.2 mph 99% 0 in 0 W/m2
05:47 49.6 °F 49.5 °F 30.1 in Calm     99% 0 in 0 W/m2
05:52 49.6 °F 49.5 °F 30.1 in Calm     99% 0 in 0 W/m2
05:57 49.6 °F 49.5 °F 30.1 in Calm   2.2 mph 99% 0 in 0 W/m2
06:02 49.6 °F 49.5 °F 30.1 in Calm   2.2 mph 99% 0 in 0 W/m2
06:07 49.6 °F 49.5 °F 30.1 in North 2.2 mph 4.5 mph 99% 0 in 0 W/m2
06:12 49.6 °F 49.5 °F 30.1 in NNW 2.2 mph 4.5 mph 99% 0 in 0 W/m2
06:17 49.6 °F 49.5 °F 30.1 in NNW 3.8 mph 4.5 mph 99% 0 in 0 W/m2
06:22 49.6 °F 49.5 °F 30.1 in NNW 4.5 mph 7.6 mph 99% 0 in 0 W/m2
06:27 49.8 °F 49.6 °F 30.1 in NNW 3.1 mph 7.6 mph 99% 0 in 0 W/m2
06:32 49.8 °F 49.6 °F 30.1 in NNW 2.2 mph 6 mph 99% 0 in 0 W/m2
06:37 49.8 °F 49.6 °F 30.1 in Calm   5.4 mph 99% 0 in 0 W/m2
06:42 50 °F 49.6 °F 30.1 in Calm   4.5 mph 99% 0 in 0 W/m2
06:47 49.8 °F 49.6 °F 30.1 in NNW 3.8 mph 6 mph 99% 0 in 1 W/m2
06:52 49.8 °F 49.6 °F 30.1 in Calm   6 mph 99% 0 in 4 W/m2
06:57 49.8 °F 49.6 °F 30.1 in NNW 2.2 mph 6 mph 99% 0 in 6 W/m2
07:02 49.6 °F 49.5 °F 30.1 in Calm   6 mph 99% 0 in 9 W/m2
07:07 49.6 °F 49.5 °F 30.1 in Calm   6 mph 99% 0 in 12 W/m2
07:12 49.5 °F 49.3 °F 30.1 in Calm   5.4 mph 99% 0 in 16 W/m2
07:17 49.6 °F 49.5 °F 30.1 in Calm     99% 0 in 24 W/m2
07:22 49.8 °F 49.6 °F 30.1 in Calm     99% 0 in 24 W/m2
07:27 50 °F 49.6 °F 30.1 in North 3.1 mph 4.5 mph 99% 0 in 19 W/m2
07:32 50 °F 49.6 °F 30.1 in North 1.6 mph 5.4 mph 99% 0 in 25 W/m2
07:50 50.5 °F 50.4 °F 30.1 in Calm   3.1 mph 99% 0 in 48 W/m2
07:55 50.9 °F 50.5 °F 30.1 in NNW 2.2 mph 5.4 mph 99% 0 in 96 W/m2
08:00 51.1 °F 50.7 °F 30.1 in NNW 3.8 mph 5.4 mph 99% 0 in 95 W/m2
08:05 51.1 °F 50.7 °F 30.1 in NW 4.5 mph 8.3 mph 99% 0 in 86 W/m2
08:10 51.1 °F 50.7 °F 30.1 in NW 3.1 mph 8.3 mph 99% 0 in 54 W/m2
08:15 51.1 °F 50.7 °F 30.1 in NNW 2.2 mph 6.9 mph 99% 0 in 39 W/m2
08:20 51.1 °F 50.7 °F 30.1 in Calm   5.4 mph 99% 0 in 44 W/m2
08:25 51.3 °F 51.1 °F 30.1 in Calm   5.4 mph 99% 0 in 92 W/m2
08:30 51.8 °F 51.3 °F 30.1 in Calm   4.5 mph 98% 0 in 121 W/m2
08:35 52.2 °F 51.6 °F 30.1 in WNW 2.2 mph 3.8 mph 98% 0 in 111 W/m2
08:40 52.2 °F 51.6 °F 30.1 in Calm   5.4 mph 98% 0 in 131 W/m2
08:45 52.3 °F 51.8 °F 30.1 in NNW 6 mph 8.3 mph 98% 0 in 98 W/m2
08:50 52.3 °F 51.8 °F 30.1 in NNW 2.2 mph 8.3 mph 98% 0 in 85 W/m2
08:55 52.5 °F 52 °F 30.1 in NNW 6 mph 8.3 mph 98% 0 in 51 W/m2
09:00 52.3 °F 51.8 °F 30.1 in NW 3.8 mph 8.3 mph 98% 0 in 36 W/m2
09:05 52.5 °F 52 °F 30.1 in Calm   8.3 mph 98% 0 in 31 W/m2
09:10 52.9 °F 52.3 °F 30.1 in Calm   5.4 mph 98% 0 in 29 W/m2
09:15 52.9 °F 52.3 °F 30.1 in Calm     98% 0 in 40 W/m2
09:20 53.1 °F 52.5 °F 30.1 in Calm   0.7 mph 98% 0 in 28 W/m2
09:25 53.1 °F 52.5 °F 30.1 in Calm   0.7 mph 98% 0.01 in 25 W/m2
09:30 53.2 °F 52.7 °F 30.1 in North 0.7 mph 4.5 mph 98% 0.01 in 13 W/m2
09:35 53.4 °F 52.9 °F 30.1 in NNW 0.7 mph 4.5 mph 98% 0.02 in 18 W/m2
09:40 53.4 °F 52.9 °F 30.1 in Calm   3.1 mph 98% 0.02 in 23 W/m2
09:45 53.6 °F 52.9 °F 30.1 in Calm   3.1 mph 97% 0.02 in 38 W/m2
09:50 53.6 °F 52.9 °F 30.1 in Calm     97% 0.02 in 61 W/m2
09:55 54.1 °F 53.2 °F 30.1 in Calm   1.6 mph 97% 0.02 in 91 W/m2
10:00 54.7 °F 54 °F 30.1 in Calm   3.8 mph 97% 0.02 in 118 W/m2
10:05 55.2 °F 54.3 °F 30.1 in Calm   3.8 mph 97% 0.02 in 125 W/m2
10:10 56.5 °F 56.1 °F 30.1 in Calm   1.6 mph 99% 0.02 in 103 W/m2
10:15 57.2 °F 56.8 °F 30.1 in Calm     99% 0.02 in 103 W/m2
10:20 57.4 °F 57 °F 30.1 in Calm     99% 0.02 in 123 W/m2
10:26 58.1 °F 57.7 °F 30.1 in Calm   0.7 mph 99% 0.01 in 119 W/m2
10:31 58.6 °F 58.5 °F 30.1 in Calm   0.7 mph 99% 0.01 in 96 W/m2
10:36 58.5 °F 58.3 °F 30.1 in Calm   4.5 mph 99% 0 in 111 W/m2
10:41 58.6 °F 58.5 °F 30.1 in SSW 0.7 mph 4.5 mph 99% 0 in 156 W/m2
10:46 58.6 °F 58.5 °F 30.1 in Calm   4.5 mph 99% 0 in 151 W/m2
10:51 58.1 °F 57.7 °F 30.1 in Calm   3.8 mph 99% 0 in 174 W/m2
10:56 57.7 °F 57.6 °F 30.1 in Calm     99% 0 in 234 W/m2
11:01 59.4 °F 59.2 °F 30.1 in Calm     99% 0.01 in 237 W/m2
11:06 60.6 °F 60.4 °F 30.1 in Calm     99% 0.01 in 284 W/m2
11:11 61.2 °F 60.6 °F 30.1 in Calm     98% 0.01 in 232 W/m2
11:16 61.2 °F 60.6 °F 30.1 in Calm     98% 0.01 in 235 W/m2
11:21 61.2 °F 60.6 °F 30.1 in Calm     98% 0.01 in 258 W/m2
11:26 61.3 °F 60.8 °F 30.1 in SSW 0.7 mph 4.5 mph 98% 0.01 in 121 W/m2
11:31 60.6 °F 59.7 °F 30.1 in South 2.2 mph 5.4 mph 97% 0.01 in 140 W/m2
11:48 60.6 °F 59.5 °F 30.1 in Calm   5.4 mph 96% 0.01 in 220 W/m2
11:53 60.8 °F 59.4 °F 30.1 in WSW 2.2 mph 4.5 mph 95% 0.01 in 326 W/m2
11:58 61.5 °F 59.7 °F 30.1 in SW 1.6 mph 4.5 mph 94% 0 in 120 W/m2
12:03 61.3 °F 59 °F 30.1 in Calm   4.5 mph 92% 0 in 106 W/m2
12:09 60.8 °F 58.5 °F 30.1 in Calm   3.1 mph 92% 0.02 in 94 W/m2
12:14 60.1 °F 58.1 °F 30.1 in SW 5.4 mph 6.9 mph 93% 0.04 in 192 W/m2
12:19 60.1 °F 58.5 °F 30.1 in WSW 4.5 mph 6.9 mph 94% 0.05 in 217 W/m2
12:24 60.3 °F 58.8 °F 30.1 in SW 2.2 mph 6.9 mph 95% 0.05 in 210 W/m2
12:29 60.1 °F 58.6 °F 30.1 in SW 3.8 mph 9.2 mph 95% 0.05 in 237 W/m2
12:34 60.8 °F 59.2 °F 30.1 in SW 1.6 mph 9.2 mph 94% 0.05 in 256 W/m2
12:39 61.2 °F 59.4 °F 30.1 in Calm   6 mph 94% 0.05 in 322 W/m2
12:44 61.5 °F 59.7 °F 30.1 in SW 5.4 mph 7.6 mph 94% 0.05 in 140 W/m2
12:49 60.8 °F 58.8 °F 30.1 in SW 5.4 mph 9.2 mph 93% 0.05 in 118 W/m2
12:54 60.1 °F 58.5 °F 30.1 in Calm   9.2 mph 94% 0.05 in 107 W/m2
12:59 59.9 °F 58.3 °F 30.1 in WSW 5.4 mph 7.6 mph 94% 0.05 in 161 W/m2
13:04 59.9 °F 58.5 °F 30.1 in Calm   7.6 mph 95% 0.02 in 165 W/m2
13:09 59.9 °F 58.5 °F 30.1 in WSW 4.5 mph 7.6 mph 95% 0.01 in 161 W/m2
13:14 60.3 °F 58.8 °F 30.1 in SW 2.2 mph 7.6 mph 95% 0.01 in 175 W/m2
13:19 60.6 °F 59.2 °F 30.1 in WSW 0.7 mph 7.6 mph 95% 0 in 262 W/m2
13:24 61 °F 59.4 °F 30.1 in WSW 3.8 mph 6.9 mph 94% 0 in 235 W/m2
13:29 61 °F 59 °F 30.1 in WSW 5.4 mph 8.3 mph 93% 0.01 in 142 W/m2
13:34 60.4 °F 58.5 °F 30.1 in SW 3.1 mph 9.2 mph 93% 0.01 in 122 W/m2
13:39 60.6 °F 58.6 °F 30.1 in SW 4.5 mph 9.2 mph 93% 0.01 in 138 W/m2
13:44 60.3 °F 58.3 °F 30.1 in SW 6 mph 9.2 mph 93% 0.01 in 133 W/m2
13:49 60.3 °F 58.3 °F 30.1 in SW 5.4 mph 9.2 mph 93% 0.01 in 101 W/m2
13:55 60.1 °F 58.1 °F 30.1 in Calm   6.9 mph 93% 0.01 in 123 W/m2
14:00 61.2 °F 58.8 °F 30.1 in Calm   6 mph 92% 0.01 in 243 W/m2
14:05 62.2 °F 59.9 °F 30.1 in SW 4.5 mph 9.8 mph 92% 0.01 in 118 W/m2
14:10 61.3 °F 58.5 °F 30.1 in SW 3.8 mph 10.7 mph 90% 0.01 in 122 W/m2
14:15 60.8 °F 57.9 °F 30.1 in SW 3.8 mph 10.7 mph 90% 0.01 in 90 W/m2
14:20 61.5 °F 58.6 °F 30.1 in SW 8.3 mph 11.4 mph 90% 0.01 in 131 W/m2
14:25 62.2 °F 59 °F 30.1 in SW 4.5 mph 11.4 mph 89% 0.01 in 136 W/m2
14:30 62.4 °F 58.8 °F 30.1 in WSW 5.4 mph 11.4 mph 88% 0 in 157 W/m2
14:35 63.3 °F 59.2 °F 30.1 in WSW 6 mph 9.8 mph 86% 0 in 197 W/m2
14:40 64.4 °F 59.7 °F 30.1 in WSW 7.6 mph 9.8 mph 85% 0 in 211 W/m2
14:45 63.3 °F 58.1 °F 30.1 in WSW 7.6 mph 11.4 mph 83% 0 in 204 W/m2
14:50 63 °F 58.1 °F 30.1 in SW 6 mph 13.6 mph 84% 0 in 159 W/m2
14:55 62.6 °F 57.9 °F 30.1 in SW 7.6 mph 13.6 mph 85% 0 in 133 W/m2
15:00 61.9 °F 57.7 °F 30.1 in SW 6 mph 11.4 mph 86% 0 in 121 W/m2
15:05 61.3 °F 57.6 °F 30.1 in SW 5.4 mph 10.7 mph 87% 0 in 103 W/m2
15:10 60.8 °F 57.6 °F 30.1 in SW 5.4 mph 11.4 mph 89% 0 in 91 W/m2
15:16 60.4 °F 57.7 °F 30.1 in SW 6 mph 11.4 mph 91% 0 in 87 W/m2
15:21 60.3 °F 57.9 °F 30.1 in SW 3.1 mph 8.3 mph 92% 0 in 90 W/m2
15:26 60.3 °F 57.9 °F 30.1 in SW 0.7 mph 8.3 mph 92% 0 in 92 W/m2
15:32 60.4 °F 58.1 °F 30.1 in Calm   6 mph 92% 0 in 94 W/m2
15:37 60.6 °F 58.3 °F 30.1 in Calm   5.4 mph 92% 0 in 88 W/m2
15:42 60.8 °F 58.3 °F 30.1 in Calm     91% 0 in 81 W/m2
15:47 60.8 °F 57.9 °F 30.1 in WSW 1.6 mph 6.9 mph 90% 0 in 80 W/m2
15:52 61 °F 57.9 °F 30.1 in WSW 2.2 mph 6.9 mph 90% 0 in 76 W/m2
15:57 61 °F 57.7 °F 30.1 in Calm   4.5 mph 89% 0 in 70 W/m2
16:02 61 °F 57.7 °F 30.1 in Calm   3.1 mph 89% 0 in 66 W/m2
16:08 60.8 °F 57.6 °F 30.1 in Calm     89% 0 in 59 W/m2
16:13 60.8 °F 57.6 °F 30.1 in Calm     89% 0 in 56 W/m2
16:18 60.8 °F 57.6 °F 30.1 in West 2.2 mph 3.8 mph 89% 0 in 51 W/m2
16:23 60.6 °F 57.7 °F 30.1 in Calm   3.8 mph 90% 0 in 55 W/m2
16:28 60.6 °F 57.9 °F 30.1 in Calm   3.8 mph 91% 0 in 43 W/m2
16:33 60.6 °F 57.9 °F 30.1 in Calm     91% 0 in 44 W/m2
16:38 60.6 °F 57.9 °F 30.1 in Calm     91% 0 in 44 W/m2
16:43 60.6 °F 58.3 °F 30.1 in Calm   4.5 mph 92% 0 in 53 W/m2
16:48 60.8 °F 58.3 °F 30.1 in Calm   4.5 mph 91% 0 in 39 W/m2
16:53 60.8 °F 58.3 °F 30.1 in Calm   6 mph 91% 0 in 32 W/m2
16:58 60.6 °F 58.3 °F 30.1 in Calm   6 mph 92% 0 in 28 W/m2
17:03 60.8 °F 58.3 °F 30.1 in Calm   6 mph 91% 0 in 28 W/m2
17:20 60.3 °F 57.9 °F 30.1 in Calm   4.5 mph 92% 0 in 8 W/m2
17:26 60.1 °F 57.7 °F 30.1 in Calm   4.5 mph 92% 0 in 4 W/m2
17:31 59.7 °F 57.7 °F 30.1 in Calm   3.8 mph 93% 0 in 2 W/m2
17:36 59.7 °F 57.7 °F 30.1 in Calm   1.6 mph 93% 0 in 0 W/m2
17:41 59.5 °F 57.6 °F 30.1 in Calm     93% 0 in 0 W/m2
17:46 59.4 °F 57.4 °F 30.1 in Calm     93% 0 in 0 W/m2
17:51 59.2 °F 57.2 °F 30.1 in Calm     93% 0 in 0 W/m2
17:56 59.2 °F 57.2 °F 30.1 in Calm     93% 0 in 0 W/m2
18:01 59 °F 57 °F 30.1 in Calm     93% 0 in 0 W/m2
18:06 59 °F 57 °F 30.1 in Calm     93% 0 in 0 W/m2
18:11 58.8 °F 57.4 °F 30.1 in Calm     95% 0 in 0 W/m2
18:16 58.6 °F 57.2 °F 30.1 in Calm     95% 0 in 0 W/m2
18:21 58.6 °F 57.2 °F 30.1 in Calm     95% 0 in 0 W/m2
18:26 58.6 °F 57.6 °F 30.1 in Calm     96% 0 in 0 W/m2
18:45 58.3 °F 57.2 °F 30.1 in Calm     96% 0 in 0 W/m2
18:50 57.9 °F 56.8 °F 30.1 in Calm     96% 0 in 0 W/m2
18:55 57.7 °F 56.7 °F 30.1 in Calm     96% 0 in 0 W/m2
19:00 57.6 °F 56.5 °F 30.1 in Calm     96% 0 in 0 W/m2
19:05 57.4 °F 56.5 °F 30.1 in Calm     97% 0 in 0 W/m2
19:10 57.2 °F 56.5 °F 30.1 in Calm     97% 0 in 0 W/m2
19:15 57.2 °F 56.5 °F 30.1 in Calm     97% 0 in 0 W/m2
19:20 56.8 °F 56.3 °F 30.1 in Calm     98% 0 in 0 W/m2
19:25 56.7 °F 56.1 °F 30.1 in Calm     98% 0 in 0 W/m2
19:30 56.5 °F 55.9 °F 30.1 in Calm     98% 0 in 0 W/m2
19:35 56.5 °F 56.1 °F 30.1 in Calm     99% 0 in 0 W/m2
19:40 56.3 °F 55.9 °F 30.1 in Calm     99% 0 in 0 W/m2
19:45 56.1 °F 55.9 °F 30.1 in Calm     99% 0 in 0 W/m2
19:50 55.9 °F 55.8 °F 30.1 in Calm     99% 0 in 0 W/m2
19:55 55.8 °F 55.6 °F 30.1 in Calm     99% 0 in 0 W/m2
20:00 55.6 °F 55.2 °F 30.1 in Calm     99% 0 in 0 W/m2
20:05 55.6 °F 55.2 °F 30.1 in Calm     99% 0 in 0 W/m2
20:10 55.4 °F 55 °F 30.1 in Calm     99% 0 in 0 W/m2
20:15 55.4 °F 55 °F 30.1 in Calm     99% 0 in 0 W/m2
20:20 55.2 °F 54.3 °F 30.1 in Calm     97% 0 in 0 W/m2
20:25 55 °F 54.1 °F 30.1 in Calm     97% 0 in 0 W/m2
20:30 55 °F 54.1 °F 30.1 in Calm     97% 0 in 0 W/m2
20:35 54.7 °F 54 °F 30.1 in Calm     97% 0 in 0 W/m2
20:40 54.7 °F 54 °F 30.1 in Calm   0.7 mph 97% 0 in 0 W/m2
20:45 54.5 °F 53.8 °F 30.1 in Calm   0.7 mph 97% 0 in 0 W/m2
20:50 54.5 °F 53.8 °F 30.1 in Calm     97% 0 in 0 W/m2
20:55 54.5 °F 53.8 °F 30.1 in Calm     97% 0 in 0 W/m2
21:00 54.5 °F 53.8 °F 30.1 in Calm     97% 0 in 0 W/m2
21:05 54.5 °F 53.8 °F 30.1 in Calm     97% 0 in 0 W/m2
21:10 54.5 °F 53.8 °F 30.1 in Calm     97% 0 in 0 W/m2
21:15 54.5 °F 53.8 °F 30.1 in Calm     97% 0 in 0 W/m2
21:20 54.7 °F 54 °F 30.1 in Calm     97% 0 in 0 W/m2
21:25 54.7 °F 54 °F 30.1 in Calm     97% 0 in 0 W/m2
21:30 54.5 °F 53.8 °F 30.1 in Calm     97% 0 in 0 W/m2
21:35 54.5 °F 53.8 °F 30.1 in Calm     97% 0 in 0 W/m2
21:40 54.5 °F 53.8 °F 30.1 in Calm     97% 0 in 0 W/m2
21:45 54.7 °F 54 °F 30.1 in Calm     97% 0 in 0 W/m2
21:50 54.5 °F 53.8 °F 30.1 in Calm     97% 0 in 0 W/m2
21:55 54.5 °F 53.8 °F 30.1 in Calm     97% 0 in 0 W/m2
22:00 54.5 °F 53.8 °F 30.1 in Calm     97% 0 in 0 W/m2
22:05 54.3 °F 53.4 °F 30.1 in Calm     97% 0 in 0 W/m2
22:10 54.3 °F 53.4 °F 30.1 in Calm     97% 0 in 0 W/m2
22:15 54.1 °F 53.2 °F 30.1 in Calm     97% 0 in 0 W/m2
22:20 54 °F 53.1 °F 30.1 in Calm     97% 0 in 0 W/m2
22:26 54 °F 53.1 °F 30.1 in Calm     97% 0 in 0 W/m2
22:31 54 °F 53.1 °F 30.1 in Calm     97% 0 in 0 W/m2
22:36 54 °F 53.1 °F 30.1 in Calm     97% 0 in 0 W/m2
22:41 54 °F 53.1 °F 30.1 in Calm     97% 0 in 0 W/m2
22:46 54 °F 53.1 °F 30.1 in Calm     97% 0 in 0 W/m2
22:51 54 °F 53.1 °F 30.1 in Calm     97% 0 in 0 W/m2
22:56 53.8 °F 53.1 °F 30.1 in Calm     97% 0 in 0 W/m2
23:01 53.6 °F 52.9 °F 30.1 in Calm     97% 0 in 0 W/m2
23:06 53.6 °F 52.9 °F 30.1 in Calm     97% 0 in 0 W/m2
23:11 53.2 °F 52.7 °F 30.1 in Calm   4.5 mph 98% 0 in 0 W/m2
23:16 53.2 °F 52.7 °F 30.1 in Calm   4.5 mph 98% 0 in 0 W/m2
23:21 53.2 °F 52.7 °F 30.1 in Calm     98% 0 in 0 W/m2
23:26 53.2 °F 52.7 °F 30.1 in Calm     98% 0 in 0 W/m2
23:31 53.2 °F 52.7 °F 30.1 in Calm     98% 0 in 0 W/m2
23:36 53.1 °F 52.5 °F 30.1 in Calm   2.2 mph 98% 0 in 0 W/m2
23:41 53.1 °F 52.5 °F 30.1 in Calm   2.2 mph 98% 0 in 0 W/m2
23:46 53.2 °F 52.7 °F 30.1 in Calm     98% 0 in 0 W/m2
23:51 53.2 °F 52.7 °F 30.1 in Calm     98% 0 in 0 W/m2
23:56 53.4 °F 52.9 °F 30.1 in Calm     98% 0 in 0 W/m2
Northern Hawkes Bay. New Zealand Historic Data
Compliments of Weather Underground - 2 mb